📊 Raw Sensor Data
Showing records 46801 to 46825 of 85,076 total
| ID | Distance (ft) | Battery V | Battery A | Int Temp (°F) | Int Humid (%) | Ext Temp (°F) | Solar V | RSSI | SNR | Time Stamp |
|---|---|---|---|---|---|---|---|---|---|---|
| 38288 | -- | 3.89 | -5 | 57 | 49 | 57 | 0.00 | -86 | 7 | 04/19/2025 08:30 PM |
| 38287 | -- | 3.89 | -5 | 60 | 52 | 59 | 0.60 | -81 | 7 | 04/19/2025 08:00 PM |
| 38286 | -- | 3.88 | -10 | 63 | 52 | 60 | 4.10 | -83 | 7 | 04/19/2025 07:45 PM |
| 38285 | -- | 3.91 | 0 | 68 | 51 | 63 | 4.50 | -80 | 8 | 04/19/2025 07:30 PM |
| 38284 | -- | 3.97 | 5 | 72 | 50 | 66 | 4.60 | -83 | 8 | 04/19/2025 07:15 PM |
| 38283 | -- | 3.99 | 6 | 75 | 50 | 69 | 4.50 | -85 | 9 | 04/19/2025 07:00 PM |
| 38282 | -- | 3.97 | 24 | 77 | 49 | 70 | 4.50 | -86 | 7 | 04/19/2025 06:45 PM |
| 38281 | -- | 4.02 | 31 | 80 | 48 | 72 | 4.50 | -82 | 8 | 04/19/2025 06:31 PM |
| 38280 | -- | 3.94 | 8 | 82 | 48 | 74 | 5.10 | -83 | 9 | 04/19/2025 06:15 PM |
| 38279 | -- | 3.94 | 0 | 84 | 47 | 75 | 5.10 | -85 | 8 | 04/19/2025 06:00 PM |
| 38278 | -- | 3.94 | 8 | 86 | 47 | 76 | 5.10 | -83 | 8 | 04/19/2025 05:45 PM |
| 38277 | -- | 3.94 | 8 | 88 | 45 | 79 | 5.10 | -84 | 9 | 04/19/2025 05:30 PM |
| 38276 | -- | 3.94 | 0 | 89 | 44 | 81 | 5.10 | -87 | 8 | 04/19/2025 05:15 PM |
| 38275 | -- | 3.94 | 8 | 90 | 44 | 80 | 5.10 | -87 | 8 | 04/19/2025 05:00 PM |
| 38274 | -- | 3.94 | 8 | 91 | 43 | 81 | 5.10 | -85 | 9 | 04/19/2025 04:45 PM |
| 38273 | -- | 3.94 | 8 | 92 | 42 | 83 | 5.10 | -86 | 7 | 04/19/2025 04:30 PM |
| 38272 | -- | 3.94 | 8 | 90 | 41 | 76 | 5.10 | -88 | 7 | 04/19/2025 04:00 PM |
| 38271 | -- | 3.94 | 8 | 91 | 40 | 81 | 5.10 | -89 | 8 | 04/19/2025 03:46 PM |
| 38270 | -- | 3.94 | 0 | 90 | 40 | 82 | 5.10 | -88 | 7 | 04/19/2025 03:30 PM |
| 38269 | -- | 3.93 | 0 | 89 | 39 | 79 | 5.10 | -83 | 8 | 04/19/2025 03:15 PM |
| 38268 | -- | 3.93 | 0 | 88 | 39 | 77 | 5.10 | -89 | 8 | 04/19/2025 03:00 PM |
| 38267 | -- | 3.95 | 0 | 87 | 39 | 77 | 5.10 | -85 | 8 | 04/19/2025 02:45 PM |
| 38266 | -- | 3.93 | 0 | 87 | 38 | 78 | 5.10 | -84 | 9 | 04/19/2025 02:30 PM |
| 38265 | -- | 3.93 | 0 | 85 | 39 | 73 | 5.10 | -89 | 7 | 04/19/2025 02:15 PM |
| 38264 | -- | 3.93 | 7 | 84 | 38 | 78 | 5.10 | -94 | 7 | 04/19/2025 02:00 PM |